Time;durP1;ratioP1;P1;durP2;ratioP2;P2;SDS_P1;SDS_P2;PMS_P1;PMS_P2;Temp;Humidity;BMP_temperature;BMP_pressure;BME280_temperature;BME280_humidity;BME280_pressure;Samples;Min_cycle;Max_cycle;Signal;HPM_P1;HPM_P2
2021/10/02 00:34:58;;;;;;;3.60;3.40;;;;;;;8.90;100.00;98010.59;4943636;28;20209;-67
2021/10/02 00:37:44;;;;;;;3.70;3.50;;;;;;;8.78;100.00;98029.34;4964138;28;20206;-66
2021/10/02 00:45:43;;;;;;;3.80;3.60;;;;;;;8.75;100.00;98018.22;4940691;28;21107;-67
2021/10/02 00:48:14;;;;;;;3.60;3.30;;;;;;;8.82;100.00;98014.84;4974947;28;20209;-67
2021/10/02 00:50:42;;;;;;;3.80;3.50;;;;;;;8.78;100.00;98015.28;4935351;28;20231;-66
2021/10/02 00:53:11;;;;;;;3.80;3.50;;;;;;;8.80;100.00;98016.81;4963022;28;20911;-67
2021/10/02 00:55:39;;;;;;;4.10;3.90;;;;;;;8.78;100.00;98018.78;4975408;28;20536;-66
2021/10/02 00:58:07;;;;;;;3.70;3.40;;;;;;;8.81;100.00;98018.47;4963701;28;20507;-67
2021/10/02 01:00:36;;;;;;;3.10;2.90;;;;;;;8.74;100.00;98017.41;4974074;28;20311;-66
2021/10/02 01:03:10;;;;;;;3.47;3.27;;;;;;;8.76;100.00;98022.53;4969242;28;20213;-67
2021/10/02 01:06:03;;;;;;;3.77;3.57;;;;;;;8.82;100.00;98017.47;4938092;28;20312;-66
2021/10/02 01:08:38;;;;;;;3.10;2.90;;;;;;;8.89;100.00;98024.78;4975341;28;20240;-66
2021/10/02 01:11:19;;;;;;;4.07;3.77;;;;;;;8.87;100.00;98027.56;4973615;28;20205;-67
2021/10/02 01:14:03;;;;;;;3.37;3.17;;;;;;;8.82;100.00;98030.69;4963612;28;21403;-66
2021/10/02 01:16:34;;;;;;;3.60;3.30;;;;;;;8.76;100.00;98033.09;4975990;28;20213;-67
2021/10/02 01:19:15;;;;;;;3.50;3.30;;;;;;;8.74;100.00;98027.13;4972653;28;20812;-67
2021/10/02 01:21:50;;;;;;;3.83;3.50;;;;;;;8.77;100.00;98026.84;4923218;28;21315;-66
2021/10/02 01:24:31;;;;;;;3.27;3.07;;;;;;;8.74;100.00;98024.50;4970528;28;20212;-67
2021/10/02 01:27:11;;;;;;;3.83;3.53;;;;;;;8.73;100.00;98030.75;4973631;28;20268;-65
2021/10/02 01:29:42;;;;;;;3.80;3.50;;;;;;;8.74;100.00;98027.97;4963214;28;20229;-67
2021/10/02 01:32:16;;;;;;;5.13;3.50;;;;;;;8.70;100.00;98023.94;4972611;28;20789;-67
2021/10/02 01:34:54;;;;;;;3.53;3.33;;;;;;;8.69;100.00;98020.50;4973367;28;20209;-67
2021/10/02 01:37:31;;;;;;;3.60;3.40;;;;;;;8.71;100.00;98038.00;4955858;28;20312;-65
2021/10/02 01:48:30;;;;;;;3.90;3.57;;;;;;;8.78;100.00;98039.06;4926771;28;20225;-66
2021/10/02 01:50:58;;;;;;;4.20;3.90;;;;;;;8.83;100.00;98042.06;4940260;28;20857;-67
2021/10/02 01:53:33;;;;;;;3.30;3.10;;;;;;;8.77;100.00;98040.03;4972667;28;20244;-66
2021/10/02 01:56:03;;;;;;;3.13;3.00;;;;;;;8.69;100.00;98051.34;4971312;28;20224;-67
2021/10/02 01:58:32;;;;;;;4.27;3.37;;;;;;;8.66;100.00;98041.09;4973960;28;20201;-66
2021/10/02 02:01:04;;;;;;;3.50;3.30;;;;;;;8.63;100.00;98042.25;4963524;28;20210;-66
2021/10/02 02:03:34;;;;;;;3.30;3.10;;;;;;;8.66;100.00;98041.94;4970125;28;20225;-66
2021/10/02 02:06:02;;;;;;;3.93;3.53;;;;;;;8.64;100.00;98043.91;4941381;28;20217;-67
2021/10/02 02:08:30;;;;;;;3.10;2.90;;;;;;;8.66;100.00;98043.72;4972406;28;20441;-66
2021/10/02 02:11:18;;;;;;;3.87;3.10;;;;;;;8.61;100.00;98043.34;4973753;28;20287;-67
2021/10/02 02:13:47;;;;;;;4.10;3.80;;;;;;;8.59;100.00;98045.31;4972076;28;20221;-67
2021/10/02 02:16:16;;;;;;;4.93;3.43;;;;;;;8.66;100.00;98047.22;4962197;28;20213;-68
2021/10/02 02:18:44;;;;;;;3.53;3.23;;;;;;;8.64;100.00;98043.91;4971231;28;20304;-67
2021/10/02 02:21:14;;;;;;;3.43;3.23;;;;;;;8.62;100.00;98048.50;4941582;28;20658;-67
2021/10/02 02:23:42;;;;;;;8.43;4.27;;;;;;;8.66;100.00;98047.22;4970580;28;20961;-66
2021/10/02 02:26:10;;;;;;;3.93;3.73;;;;;;;8.64;100.00;98041.25;4974840;28;20236;-67
2021/10/02 02:28:40;;;;;;;8.33;4.93;;;;;;;8.67;100.00;98038.31;4971981;28;20236;-66
2021/10/02 02:31:09;;;;;;;3.77;3.47;;;;;;;8.69;100.00;98035.50;4974512;28;20748;-68
2021/10/02 02:33:39;;;;;;;3.43;3.23;;;;;;;8.64;100.00;98041.25;4957734;28;20321;-66
2021/10/02 02:36:08;;;;;;;3.10;2.90;;;;;;;8.62;100.00;98039.75;4975518;28;20284;-67
2021/10/02 02:38:36;;;;;;;3.80;3.60;;;;;;;8.60;100.00;98031.97;4935448;28;20217;-66
2021/10/02 02:41:05;;;;;;;3.10;2.90;;;;;;;8.62;100.00;98037.09;4974024;28;20246;-68
2021/10/02 02:43:38;;;;;;;3.83;3.53;;;;;;;8.62;100.00;98037.09;4970069;28;20226;-66
2021/10/02 02:46:09;;;;;;;3.63;3.43;;;;;;;8.67;100.00;98032.19;4974913;28;20228;-68
2021/10/02 02:48:41;;;;;;;4.10;3.90;;;;;;;8.64;100.00;98035.13;4959248;28;20209;-65
2021/10/02 02:51:14;;;;;;;3.67;3.30;;;;;;;8.65;100.00;98032.34;4974300;28;20230;-67
2021/10/02 02:53:47;;;;;;;3.80;3.60;;;;;;;8.57;100.00;98037.56;4939879;28;20233;-67
2021/10/02 02:56:19;;;;;;;3.30;3.10;;;;;;;8.51;100.00;98033.69;4982563;28;20198;-67
2021/10/02 02:58:52;;;;;;;3.90;3.70;;;;;;;8.47;100.00;98034.09;4961832;28;20217;-66
2021/10/02 03:01:21;;;;;;;3.63;3.43;;;;;;;8.40;100.00;98040.00;4959926;28;20701;-67
2021/10/02 03:03:52;;;;;;;3.83;3.53;;;;;;;8.36;100.00;98051.84;4971252;28;20333;-66
2021/10/02 03:06:22;;;;;;;4.10;3.80;;;;;;;8.34;100.00;98040.59;4968916;28;20216;-66
2021/10/02 03:08:52;;;;;;;4.43;3.93;;;;;;;8.30;100.00;98049.78;4957863;28;20217;-65
2021/10/02 03:11:22;;;;;;;4.17;3.83;;;;;;;8.27;100.00;98047.44;4983517;28;20226;-67
2021/10/02 03:13:52;;;;;;;4.30;4.00;;;;;;;8.25;100.00;98047.59;4956621;28;20348;-66
2021/10/02 03:16:21;;;;;;;4.00;3.70;;;;;;;8.24;100.00;98038.00;4927544;28;20221;-65
2021/10/02 03:18:54;;;;;;;3.80;3.50;;;;;;;8.27;100.00;98039.53;4953617;28;20210;-66
2021/10/02 03:21:23;;;;;;;4.07;3.70;;;;;;;8.22;100.00;98039.97;4954106;28;20400;-67
2021/10/02 03:23:52;;;;;;;4.00;3.70;;;;;;;8.21;100.00;98033.03;4943708;28;21411;-66
2021/10/02 03:26:20;;;;;;;3.90;3.70;;;;;;;8.25;100.00;98038.84;4955229;28;20704;-66
2021/10/02 03:28:49;;;;;;;3.73;3.43;;;;;;;8.18;100.00;98032.50;4950564;28;20719;-66
2021/10/02 03:31:18;;;;;;;4.23;3.93;;;;;;;8.21;100.00;98035.66;4921075;28;20281;-66
2021/10/02 03:33:47;;;;;;;4.47;4.13;;;;;;;8.26;100.00;98037.88;4956041;28;20222;-68
2021/10/02 03:36:16;;;;;;;4.60;4.30;;;;;;;8.26;100.00;98040.50;4952204;28;20652;-66
2021/10/02 03:38:44;;;;;;;4.70;3.87;;;;;;;8.23;100.00;98043.44;4943712;28;20221;-68
2021/10/02 03:41:13;;;;;;;3.40;3.20;;;;;;;8.23;100.00;98040.81;4942565;28;20369;-67
2021/10/02 03:43:41;;;;;;;3.47;3.27;;;;;;;8.28;100.00;98040.34;4953985;28;20227;-66
2021/10/02 03:46:09;;;;;;;3.73;3.53;;;;;;;8.31;100.00;98032.97;4947273;28;20281;-66
2021/10/02 03:48:38;;;;;;;5.60;4.43;;;;;;;8.36;100.00;98041.28;4933428;28;20435;-68
2021/10/02 03:51:06;;;;;;;4.00;3.70;;;;;;;8.34;100.00;98034.50;4956108;28;20223;-66
2021/10/02 03:53:36;;;;;;;3.47;3.27;;;;;;;8.34;100.00;98037.94;4937928;28;20758;-67
2021/10/02 03:56:06;;;;;;;4.30;4.00;;;;;;;8.47;100.00;98036.75;4955255;28;20253;-68
2021/10/02 03:58:34;;;;;;;3.47;3.27;;;;;;;8.56;100.00;98035.06;4954079;28;20202;-68
2021/10/02 04:01:03;;;;;;;4.10;3.80;;;;;;;8.48;100.00;98033.97;4954988;28;20302;-68
2021/10/02 04:03:31;;;;;;;4.87;4.40;;;;;;;8.60;100.00;98039.06;4917886;28;20468;-68
2021/10/02 04:05:59;;;;;;;3.93;3.73;;;;;;;8.56;100.00;98032.41;4953005;28;20294;-67
2021/10/02 04:08:27;;;;;;;4.37;4.07;;;;;;;8.52;100.00;98019.50;4943014;28;20451;-68
2021/10/02 04:10:57;;;;;;;4.50;4.20;;;;;;;8.63;100.00;98029.03;4941520;28;20245;-66
2021/10/02 04:13:25;;;;;;;4.00;3.70;;;;;;;8.57;100.00;98024.34;4951104;28;20226;-66
2021/10/02 04:15:53;;;;;;;4.30;3.90;;;;;;;8.57;100.00;98023.50;4944549;28;20264;-70
2021/10/02 04:18:21;;;;;;;4.23;3.90;;;;;;;8.57;100.00;98020.88;4917750;28;20664;-69
2021/10/02 04:20:49;;;;;;;4.27;3.97;;;;;;;8.61;100.00;98016.94;4953530;28;20698;-67
2021/10/02 04:23:17;;;;;;;4.33;4.03;;;;;;;8.62;100.00;98021.25;4954504;28;20241;-67
2021/10/02 04:25:45;;;;;;;3.67;3.43;;;;;;;8.56;100.00;98020.06;4944853;28;20659;-68
2021/10/02 04:28:15;;;;;;;6.23;4.30;;;;;;;8.48;100.00;98018.13;4953060;28;20708;-66
2021/10/02 04:30:43;;;;;;;4.20;3.90;;;;;;;8.53;100.00;98018.53;4952965;28;20452;-69
2021/10/02 04:33:12;;;;;;;4.37;4.00;;;;;;;8.47;100.00;98018.25;4928311;28;20760;-66
2021/10/02 04:35:41;;;;;;;4.67;4.27;;;;;;;8.40;100.00;98013.59;4937258;28;20228;-66
2021/10/02 04:38:09;;;;;;;4.27;3.87;;;;;;;8.36;100.00;98012.22;4939226;28;20424;-67
2021/10/02 04:40:37;;;;;;;3.50;3.30;;;;;;;8.37;100.00;98015.72;4947040;28;20207;-68
2021/10/02 04:43:05;;;;;;;4.20;3.90;;;;;;;8.35;100.00;98009.75;4951965;28;20444;-68
2021/10/02 04:45:34;;;;;;;4.53;4.13;;;;;;;8.33;100.00;98011.69;4949672;28;20202;-68
2021/10/02 04:48:02;;;;;;;4.57;4.17;;;;;;;8.28;100.00;98020.06;4924119;28;20312;-67
2021/10/02 04:50:32;;;;;;;4.63;4.23;;;;;;;8.17;100.00;98012.38;4919572;28;20244;-70
2021/10/02 04:53:00;;;;;;;4.87;4.50;;;;;;;8.23;100.00;98009.94;4936608;28;20964;-70
2021/10/02 04:55:28;;;;;;;4.03;3.73;;;;;;;8.17;100.00;98020.28;4942063;28;20421;-67
2021/10/02 04:57:56;;;;;;;4.13;3.80;;;;;;;8.12;100.00;98018.06;4945526;28;20222;-69
2021/10/02 05:00:24;;;;;;;7.20;4.70;;;;;;;8.12;100.00;98028.63;4948555;28;20444;-70
2021/10/02 05:02:54;;;;;;;5.47;4.97;;;;;;;8.10;100.00;98030.59;4938652;28;20336;-68
2021/10/02 05:05:22;;;;;;;4.93;4.50;;;;;;;8.10;100.00;98035.88;4918411;28;20232;-67
2021/10/02 05:07:50;;;;;;;4.80;4.40;;;;;;;8.11;100.00;98040.97;4901127;28;20225;-71
2021/10/02 05:10:18;;;;;;;5.13;4.73;;;;;;;8.14;100.00;98045.16;4952228;28;20213;-70
2021/10/02 05:12:46;;;;;;;5.47;4.40;;;;;;;8.16;100.00;98039.75;4955884;28;20238;-69
2021/10/02 05:15:14;;;;;;;8.17;5.20;;;;;;;8.22;100.00;98047.88;4942732;28;20396;-68
2021/10/02 05:17:44;;;;;;;4.63;4.23;;;;;;;8.30;100.00;98039.22;4952338;28;20217;-69
2021/10/02 05:20:23;;;;;;;4.83;4.40;;;;;;;8.31;100.00;98050.59;4951765;28;20390;-68
2021/10/02 05:22:55;;;;;;;4.50;4.20;;;;;;;8.32;100.00;98039.91;4921610;28;20336;-66
2021/10/02 05:25:23;;;;;;;4.67;4.27;;;;;;;8.36;100.00;98053.66;4952591;28;20424;-68
2021/10/02 05:27:51;;;;;;;5.20;4.30;;;;;;;8.39;100.00;98048.91;4954023;28;20297;-69
2021/10/02 05:30:19;;;;;;;4.93;4.47;;;;;;;8.43;100.00;98053.88;4940279;28;20340;-70
2021/10/02 05:32:47;;;;;;;4.97;4.57;;;;;;;8.43;100.00;98052.06;4950517;28;20222;-71
2021/10/02 05:35:15;;;;;;;5.20;4.80;;;;;;;8.45;100.00;98052.75;4949725;28;20310;-70
2021/10/02 05:37:44;;;;;;;4.60;4.27;;;;;;;8.52;100.00;98059.13;4919859;28;20218;-71
2021/10/02 05:40:12;;;;;;;5.00;4.60;;;;;;;8.60;100.00;98057.56;4947861;28;20214;-68
2021/10/02 05:42:40;;;;;;;4.90;4.50;;;;;;;8.61;100.00;98046.84;4952871;28;20227;-70
2021/10/02 05:45:08;;;;;;;4.83;4.53;;;;;;;8.66;100.00;98046.38;4940293;28;20709;-68
2021/10/02 05:47:37;;;;;;;5.73;5.17;;;;;;;8.69;100.00;98051.34;4951911;28;20202;-68
2021/10/02 05:50:06;;;;;;;4.60;4.20;;;;;;;8.68;100.00;98047.91;4955360;28;20212;-68
2021/10/02 05:52:34;;;;;;;4.80;4.40;;;;;;;8.73;100.00;98058.03;4954976;28;20651;-70
2021/10/02 05:55:04;;;;;;;4.60;4.30;;;;;;;8.76;100.00;98056.88;4918653;28;20254;-68
2021/10/02 05:57:32;;;;;;;4.80;4.50;;;;;;;8.81;100.00;98055.47;4952186;28;20301;-71
2021/10/02 06:00:00;;;;;;;5.37;4.87;;;;;;;8.84;100.00;98059.59;4944958;28;20209;-68
2021/10/02 06:02:28;;;;;;;6.03;5.53;;;;;;;8.90;100.00;98058.16;4952991;28;20435;-69
2021/10/02 06:04:56;;;;;;;5.20;4.80;;;;;;;8.91;100.00;98060.66;4954234;28;20310;-68
2021/10/02 06:07:24;;;;;;;4.90;4.50;;;;;;;9.04;100.00;98070.03;4953483;28;20548;-71
2021/10/02 06:09:52;;;;;;;5.73;5.33;;;;;;;9.03;100.00;98061.25;4922049;28;20218;-70
2021/10/02 06:12:21;;;;;;;4.80;4.50;;;;;;;9.20;100.00;98059.56;4951889;28;20234;-71
2021/10/02 06:14:49;;;;;;;5.13;4.77;;;;;;;9.21;100.00;98068.34;4930173;28;20222;-68
2021/10/02 06:17:17;;;;;;;5.30;4.63;;;;;;;9.32;100.00;98061.97;4949370;28;20218;-70
2021/10/02 06:19:45;;;;;;;5.93;5.20;;;;;;;9.51;100.00;98067.06;4942699;28;20211;-69
2021/10/02 06:22:13;;;;;;;5.47;5.07;;;;;;;9.59;100.00;98065.44;4949756;28;20245;-71
2021/10/02 06:24:41;;;;;;;5.13;4.73;;;;;;;9.74;100.00;98063.06;4917980;28;20213;-68
2021/10/02 06:27:09;;;;;;;5.47;5.07;;;;;;;9.92;100.00;98055.03;4949366;28;20427;-71
2021/10/02 06:29:39;;;;;;;5.77;5.30;;;;;;;10.08;100.00;98060.44;4954770;28;20218;-69
2021/10/02 06:32:07;;;;;;;5.33;4.93;;;;;;;10.22;100.00;98061.63;4954257;28;20530;-69
2021/10/02 06:34:35;;;;;;;6.77;4.43;;;;;;;10.28;100.00;98061.00;4953711;28;20201;-67
2021/10/02 06:37:04;;;;;;;5.17;4.83;;;;;;;10.28;100.00;98053.06;4945213;28;20427;-68
2021/10/02 06:39:32;;;;;;;5.87;4.87;;;;;;;10.32;100.00;98053.53;4901930;28;20612;-67
2021/10/02 06:42:00;;;;;;;5.10;4.70;;;;;;;10.32;100.00;98044.78;4949626;28;20218;-68
2021/10/02 06:44:28;;;;;;;5.50;4.90;;;;;;;10.33;100.00;98051.75;4947542;28;20440;-69
2021/10/02 06:46:57;;;;;;;8.70;5.33;;;;;;;10.36;100.00;98048.75;4953609;28;20362;-69
2021/10/02 06:49:28;;;;;;;5.47;4.97;;;;;;;10.35;100.00;98047.09;4940725;28;20232;-70
2021/10/02 06:51:56;;;;;;;4.53;4.23;;;;;;;10.42;100.00;98045.50;4949401;28;20229;-71
2021/10/02 06:54:24;;;;;;;8.63;5.70;;;;;;;10.52;100.00;98046.19;4951187;28;20202;-71
2021/10/02 06:56:52;;;;;;;5.67;5.13;;;;;;;10.75;100.00;98042.91;4921072;28;20717;-71
2021/10/02 06:59:25;;;;;;;5.87;5.37;;;;;;;10.78;100.00;98049.69;4950174;28;20770;-69
2021/10/02 07:01:53;;;;;;;6.30;4.80;;;;;;;10.85;100.00;98042.75;4954630;28;20297;-69
2021/10/02 07:04:22;;;;;;;5.73;5.20;;;;;;;10.95;100.00;98035.47;4946341;28;20541;-69
2021/10/02 07:06:58;;;;;;;5.77;5.07;;;;;;;11.07;100.00;98043.09;4954846;28;20281;-67
2021/10/02 07:09:26;;;;;;;4.97;4.67;;;;;;;11.05;100.00;98037.13;4950122;28;20546;-70
2021/10/02 07:11:54;;;;;;;6.03;5.20;;;;;;;11.38;100.00;98024.69;4920211;28;20222;-70
2021/10/02 07:14:22;;;;;;;6.10;5.57;;;;;;;11.79;100.00;98022.91;4952646;28;20327;-70
2021/10/02 07:16:51;;;;;;;5.53;5.10;;;;;;;12.08;100.00;98027.66;4918975;28;20670;-70
2021/10/02 07:19:19;;;;;;;5.00;4.60;;;;;;;12.37;100.00;98020.88;4953846;28;20281;-68
2021/10/02 07:21:49;;;;;;;5.37;4.90;;;;;;;12.67;100.00;98020.19;4952477;28;20203;-71
2021/10/02 07:24:17;;;;;;;5.53;5.13;;;;;;;12.74;100.00;98029.09;4946969;28;20233;-69
2021/10/02 07:26:45;;;;;;;5.10;4.70;;;;;;;13.09;100.00;98028.69;4951650;28;20443;-68
2021/10/02 07:29:13;;;;;;;6.10;4.97;;;;;;;13.30;100.00;98031.47;4942548;28;20781;-68
2021/10/02 07:31:42;;;;;;;5.23;4.83;;;;;;;13.56;100.00;98027.59;4918717;28;20491;-70
2021/10/02 07:34:10;;;;;;;4.77;4.17;;;;;;;13.97;100.00;98036.13;4953739;28;20437;-70
2021/10/02 07:36:38;;;;;;;5.97;4.37;;;;;;;14.13;100.00;98035.13;4949514;28;20439;-68
2021/10/02 07:39:08;;;;;;;5.30;4.90;;;;;;;14.42;100.00;98028.91;4955806;28;20234;-70
2021/10/02 07:41:39;;;;;;;4.93;4.50;;;;;;;14.69;100.00;98033.69;4953194;28;20211;-69
2021/10/02 07:44:08;;;;;;;5.20;4.70;;;;;;;14.75;100.00;98031.13;4947784;28;20226;-71
2021/10/02 07:46:36;;;;;;;5.43;4.63;;;;;;;14.85;100.00;98025.47;4954083;28;20488;-70
2021/10/02 07:49:04;;;;;;;5.23;4.83;;;;;;;14.85;100.00;98038.81;4924514;28;20228;-70
2021/10/02 07:51:32;;;;;;;5.13;4.63;;;;;;;15.03;100.00;98033.03;4950810;28;20423;-68
2021/10/02 07:54:01;;;;;;;4.97;4.37;;;;;;;14.83;100.00;98040.84;4953929;28;20234;-67
2021/10/02 07:56:31;;;;;;;5.47;4.80;;;;;;;14.83;100.00;98048.84;4954153;28;20570;-68
2021/10/02 07:59:05;;;;;;;4.47;4.17;;;;;;;15.05;100.00;98055.00;4942133;28;20222;-68
2021/10/02 08:01:33;;;;;;;5.27;4.70;;;;;;;15.29;100.00;98060.13;4952485;28;20417;-69
2021/10/02 08:04:03;;;;;;;4.80;4.40;;;;;;;15.16;100.00;98055.50;4917818;28;20265;-67
2021/10/02 08:06:43;;;;;;;5.10;4.80;;;;;;;15.09;100.00;98049.28;4950658;28;20210;-70
2021/10/02 08:09:11;;;;;;;4.60;4.30;;;;;;;15.14;100.00;98046.88;4955890;28;20253;-70
2021/10/02 08:11:42;;;;;;;5.10;4.60;;;;;;;15.42;100.00;98043.41;4953362;28;20631;-70
2021/10/02 08:14:10;;;;;;;5.67;5.03;;;;;;;15.35;100.00;98051.34;4943413;28;20250;-70
2021/10/02 08:16:40;;;;;;;4.40;4.10;;;;;;;15.16;100.00;98052.84;4951029;28;20293;-69
2021/10/02 08:19:09;;;;;;;5.70;4.40;;;;;;;15.09;100.00;98039.44;4921964;28;20708;-67
2021/10/02 08:21:39;;;;;;;4.30;4.00;;;;;;;15.15;100.00;98037.84;4951794;28;20301;-68
2021/10/02 08:24:08;;;;;;;4.23;3.93;;;;;;;15.05;100.00;98033.66;4953871;28;20819;-68
2021/10/02 08:26:36;;;;;;;6.90;4.73;;;;;;;15.24;100.00;98041.22;4951885;28;20348;-70
2021/10/02 08:29:06;;;;;;;5.77;4.37;;;;;;;15.12;100.00;98023.03;4944088;28;20226;-70
2021/10/02 08:31:34;;;;;;;5.63;5.10;;;;;;;15.23;100.00;98028.88;4950993;28;20237;-70
2021/10/02 08:34:22;;;;;;;4.70;4.40;;;;;;;15.39;100.00;98030.44;4920090;28;20280;-68
2021/10/02 08:36:50;;;;;;;7.10;4.30;;;;;;;15.52;100.00;98017.16;4953062;28;21096;-70
2021/10/02 08:39:19;;;;;;;4.77;4.37;;;;;;;15.43;100.00;98010.34;4954279;28;20203;-69
2021/10/02 08:41:47;;;;;;;4.80;4.40;;;;;;;15.52;100.00;98011.00;4954480;28;20440;-70
2021/10/02 08:44:22;;;;;;;4.73;4.43;;;;;;;15.66;100.00;98015.41;4953636;28;20225;-68
2021/10/02 08:46:51;;;;;;;4.53;4.13;;;;;;;15.53;100.00;98013.47;4947326;28;20334;-70
2021/10/02 08:49:33;;;;;;;10.07;4.63;;;;;;;15.60;100.00;98014.34;4940603;28;20206;-68
2021/10/02 08:52:03;;;;;;;4.27;3.97;;;;;;;15.69;100.00;98012.34;4955384;28;20233;-70
2021/10/02 08:54:35;;;;;;;3.80;3.50;;;;;;;15.77;100.00;98019.38;4953493;28;20222;-68
2021/10/02 08:57:04;;;;;;;4.30;3.90;;;;;;;15.78;100.00;98015.69;4955991;28;20261;-70
2021/10/02 08:59:33;;;;;;;4.90;4.50;;;;;;;15.86;100.00;98015.53;4940598;28;20666;-68
2021/10/02 09:02:01;;;;;;;4.10;3.80;;;;;;;16.01;100.00;98009.25;4956914;28;20213;-68
2021/10/02 09:04:29;;;;;;;4.50;3.37;;;;;;;16.02;100.00;98003.72;4947787;28;20614;-69
2021/10/02 09:06:58;;;;;;;4.80;3.67;;;;;;;16.06;100.00;98004.13;4924713;28;20229;-70
2021/10/02 09:09:26;;;;;;;3.73;3.53;;;;;;;16.29;100.00;98005.66;4951044;28;20218;-69
2021/10/02 09:11:54;;;;;;;4.10;3.50;;;;;;;16.13;100.00;98013.00;4953567;28;20237;-70
2021/10/02 09:14:22;;;;;;;4.60;3.80;;;;;;;16.39;100.00;97998.06;4951354;28;20230;-67
2021/10/02 09:16:52;;;;;;;3.67;3.37;;;;;;;16.46;100.00;97996.22;4942638;28;20733;-69
2021/10/02 09:19:20;;;;;;;4.07;3.77;;;;;;;16.47;100.00;98000.56;4952118;28;20214;-68
2021/10/02 09:21:57;;;;;;;4.40;3.80;;;;;;;16.70;100.00;98003.91;4920969;28;20376;-70
2021/10/02 09:24:28;;;;;;;5.23;3.70;;;;;;;16.93;100.00;98000.84;4957754;28;20513;-70
2021/10/02 09:26:55;;;;;;;4.30;3.73;;;;;;;16.85;100.00;97998.34;4921916;28;20772;-69
2021/10/02 09:29:41;;;;;;;4.53;4.07;;;;;;;16.93;100.00;97998.19;4956445;28;20631;-69
2021/10/02 09:32:12;;;;;;;7.23;6.50;;;;;;;16.98;100.00;97992.22;4953751;28;20206;-70
2021/10/02 09:34:45;;;;;;;16.30;13.07;;;;;;;16.94;100.00;97991.78;4954372;28;20330;-69
2021/10/02 09:37:25;;;;;;;15.97;14.33;;;;;;;16.97;100.00;97990.53;4953523;28;20223;-68
2021/10/02 09:39:57;;;;;;;5.13;4.73;;;;;;;17.01;100.00;97989.97;4948958;28;20471;-70
2021/10/02 09:42:32;;;;;;;4.17;3.93;;;;;;;17.07;100.00;97983.78;4952790;28;20635;-69
2021/10/02 09:45:04;;;;;;;4.13;3.83;;;;;;;17.29;100.00;97977.38;4940202;28;20685;-70
2021/10/02 09:47:34;;;;;;;4.63;3.90;;;;;;;17.22;100.00;97982.75;4955529;28;20587;-68
2021/10/02 09:50:07;;;;;;;4.80;3.43;;;;;;;17.20;100.00;97979.44;4949022;28;20630;-70
2021/10/02 09:52:38;;;;;;;4.00;3.60;;;;;;;17.15;100.00;97973.91;4939321;28;20226;-71
2021/10/02 09:55:19;;;;;;;4.23;2.80;;;;;;;17.13;100.00;97971.44;4933618;28;21134;-69
2021/10/02 09:57:49;;;;;;;3.73;3.43;;;;;;;17.20;100.00;97974.09;4938404;28;20658;-70
2021/10/02 10:00:19;;;;;;;3.30;2.97;;;;;;;17.15;100.00;97968.53;4934069;28;20233;-69
2021/10/02 10:02:49;;;;;;;4.80;4.03;;;;;;;17.33;100.00;97968.75;4959662;28;20221;-72
2021/10/02 10:05:17;;;;;;;8.03;7.23;;;;;;;17.41;100.00;97953.47;4965003;28;20229;-68
2021/10/02 10:07:56;;;;;;;4.93;3.13;;;;;;;17.61;100.00;97948.88;4957148;28;20771;-66
2021/10/02 10:10:24;;;;;;;6.27;5.67;;;;;;;17.46;100.00;97945.63;4970617;28;20202;-66
2021/10/02 10:12:53;;;;;;;3.90;3.60;;;;;;;17.65;100.00;97942.09;4944968;28;20237;-67
2021/10/02 10:15:33;;;;;;;7.70;3.60;;;;;;;17.80;100.00;97941.00;4913824;28;20225;-66
2021/10/02 10:18:03;;;;;;;4.77;3.47;;;;;;;17.88;100.00;97940.75;4958670;28;20663;-69
2021/10/02 10:20:37;;;;;;;4.07;3.70;;;;;;;18.05;100.00;97935.75;4962859;28;20313;-66
2021/10/02 10:23:07;;;;;;;3.43;3.23;;;;;;;18.23;100.00;97942.28;4967637;28;20251;-70
2021/10/02 10:25:48;;;;;;;3.97;3.67;;;;;;;18.45;100.00;97932.03;4968938;28;20206;-67
2021/10/02 10:28:18;;;;;;;3.80;3.50;;;;;;;18.66;100.00;97916.59;4961940;28;20216;-70
2021/10/02 10:30:48;;;;;;;3.80;3.50;;;;;;;18.84;100.00;97923.88;4926036;28;20229;-68
2021/10/02 10:33:18;;;;;;;3.90;3.70;;;;;;;18.64;100.00;97914.16;4960718;28;20248;-70
2021/10/02 10:35:48;;;;;;;4.43;3.40;;;;;;;18.55;100.00;97920.00;4967569;28;20210;-67
2021/10/02 10:38:18;;;;;;;4.83;4.03;;;;;;;18.26;100.00;97922.25;4971213;28;20785;-69
2021/10/02 10:40:47;;;;;;;5.57;3.37;;;;;;;18.12;100.00;97921.50;4970087;28;20217;-67
2021/10/02 10:43:15;;;;;;;3.73;3.47;;;;;;;18.41;100.00;97930.00;4950135;28;20229;-70
2021/10/02 10:45:44;;;;;;;3.70;3.40;;;;;;;18.73;100.00;97933.47;4928970;28;20210;-71
2021/10/02 10:48:12;;;;;;;3.53;3.33;;;;;;;18.80;100.00;97931.56;4939632;28;20587;-72
2021/10/02 10:50:43;;;;;;;4.57;4.17;;;;;;;18.78;100.00;97922.09;4954469;28;20210;-72
2021/10/02 10:53:12;;;;;;;3.73;3.50;;;;;;;19.16;100.00;97915.00;4973680;28;20969;-70
2021/10/02 10:55:52;;;;;;;4.30;3.90;;;;;;;19.04;100.00;97904.94;4967695;28;20329;-72
2021/10/02 10:58:25;;;;;;;2.80;2.53;;;;;;;19.17;100.00;97906.69;4961015;28;20678;-70
2021/10/02 11:00:53;;;;;;;3.57;3.27;;;;;;;19.09;100.00;97898.94;4913324;28;20213;-71
2021/10/02 11:03:36;;;;;;;3.57;3.17;;;;;;;19.36;100.00;97898.66;4934911;28;20301;-68
2021/10/02 11:06:06;;;;;;;3.60;3.30;;;;;;;19.35;100.00;97897.81;4959706;28;20205;-74
2021/10/02 11:09:05;;;;;;;3.87;3.57;;;;;;;19.29;100.00;97893.34;4972973;28;20216;-75
2021/10/02 11:11:59;;;;;;;4.10;3.60;;;;;;;19.23;100.00;97886.19;4949574;28;20286;-73
2021/10/02 11:15:04;;;;;;;4.40;3.37;;;;;;;19.35;100.00;97881.72;4956317;28;21469;-72
2021/10/02 11:17:47;;;;;;;3.67;3.13;;;;;;;19.45;100.00;97880.34;4959671;28;20216;-71
2021/10/02 11:20:41;;;;;;;3.30;3.00;;;;;;;19.87;100.00;97883.16;4956675;28;20756;-70
2021/10/02 11:23:45;;;;;;;3.93;3.13;;;;;;;20.22;100.00;97882.50;4905790;28;20246;-70
2021/10/02 11:26:18;;;;;;;3.57;3.27;;;;;;;20.33;98.41;97878.19;4938768;28;20206;-70
2021/10/02 11:28:49;;;;;;;3.67;3.40;;;;;;;20.34;100.00;97863.69;4967355;28;20218;-69
2021/10/02 11:31:24;;;;;;;3.50;3.20;;;;;;;20.49;96.67;97862.44;4929325;28;20444;-71
2021/10/02 11:34:03;;;;;;;3.57;3.27;;;;;;;20.70;87.20;97860.22;4975284;28;20307;-70
2021/10/02 11:36:43;;;;;;;3.40;3.20;;;;;;;20.90;89.32;97858.06;4934316;28;20672;-70
2021/10/02 11:39:14;;;;;;;3.43;3.23;;;;;;;21.22;86.92;97854.16;4975947;28;20205;-71
2021/10/02 11:41:45;;;;;;;3.20;3.00;;;;;;;21.37;87.21;97850.97;4969462;28;20685;-70
2021/10/02 11:44:14;;;;;;;3.60;3.30;;;;;;;21.73;82.25;97840.09;4974600;28;20219;-70
2021/10/02 11:46:46;;;;;;;3.47;3.17;;;;;;;21.69;82.26;97832.50;4971013;28;20202;-70
2021/10/02 11:49:19;;;;;;;3.60;3.30;;;;;;;21.71;77.30;97821.47;4975376;28;20219;-70
2021/10/02 11:52:10;;;;;;;3.00;2.80;;;;;;;21.93;70.28;97826.19;4941633;28;21363;-73
2021/10/02 11:54:41;;;;;;;3.17;2.97;;;;;;;22.20;65.23;97826.41;4963767;28;20229;-72
2021/10/02 11:57:14;;;;;;;4.10;3.70;;;;;;;22.43;64.67;97819.19;4974927;28;20210;-71
2021/10/02 11:59:43;;;;;;;3.33;2.93;;;;;;;22.57;62.96;97821.63;4961498;28;20204;-72
2021/10/02 12:02:12;;;;;;;3.23;3.03;;;;;;;23.01;58.42;97810.06;4976735;28;20234;-73
2021/10/02 12:04:41;;;;;;;2.87;2.70;;;;;;;23.01;57.22;97807.38;4969939;28;20486;-71
2021/10/02 12:07:09;;;;;;;4.43;3.00;;;;;;;23.04;57.19;97802.31;4943423;28;20808;-72
2021/10/02 12:09:37;;;;;;;5.40;3.27;;;;;;;23.25;58.65;97803.41;4972020;28;20275;-70
2021/10/02 12:12:06;;;;;;;3.40;3.10;;;;;;;23.24;57.97;97801.78;4972048;28;20621;-72
2021/10/02 12:14:35;;;;;;;3.10;2.90;;;;;;;23.29;53.28;97792.09;4968407;28;20226;-72
2021/10/02 12:17:08;;;;;;;3.57;3.27;;;;;;;23.44;55.41;97796.88;4963149;28;20686;-72
2021/10/02 12:19:36;;;;;;;3.17;2.90;;;;;;;23.38;54.36;97791.41;4966291;28;20213;-71
2021/10/02 12:22:05;;;;;;;3.30;3.10;;;;;;;23.44;53.36;97783.34;4942474;28;20225;-71
2021/10/02 12:24:35;;;;;;;3.83;2.93;;;;;;;23.79;50.92;97790.22;4973080;28;20685;-71
2021/10/02 12:27:05;;;;;;;4.63;3.00;;;;;;;23.37;52.31;97781.66;4971995;28;20567;-73
2021/10/02 12:29:37;;;;;;;3.13;2.83;;;;;;;23.91;50.79;97776.53;4972064;28;20211;-71
2021/10/02 12:32:07;;;;;;;3.23;2.90;;;;;;;24.07;50.80;97770.19;4971482;28;20220;-73
2021/10/02 12:34:38;;;;;;;3.50;2.87;;;;;;;24.19;49.39;97761.06;4980541;28;20597;-72